Trumbull, Nebraska
Current Conditions -  °F | °C
As of 11:53 PM on Sunday 25 Jan 2015 (Local Time) from KHSI Reporting Station
Overcast Overcast  
Wind Chill: 27°   Ceiling: 8500
Heat Index: 32°   Visibility: 10mi
Dew Point: 25°   Wind: 5mph
Humidity: 75%   Direction: 190°S
Pressure: 30.03"   Gusts: NA
Location:  40.68°N, 98.27°W
Report Text: KHSI 260553Z AUTO 19004KT 10SM OVC085 00/M04 A3003 RMK AO2 SLP184 T00001039 10017 21039 400781039 56012
Loading
Personal Weather Stations






























Interactive Weather Map New forecast layout! Learn more

10-Day Weather Forecast

Advertisements
Track Severe Weather on mobile